Time;durP1;ratioP1;P1;durP2;ratioP2;P2;SDS_P1;SDS_P2;PMS_P1;PMS_P2;Temp;Humidity;BMP_temperature;BMP_pressure;BME280_temperature;BME280_humidity;BME280_pressure;Samples;Min_cycle;Max_cycle;Signal;HPM_P1;HPM_P2
2023/04/23 00:01:46;;;;;;;;;2.00;2.00;;;;;15.27;60.79;100443.00;4967638;28;46031;-59
2023/04/23 00:04:14;;;;;;;;;3.00;3.00;;;;;15.16;60.57;100424.78;4968865;28;45633;-60
2023/04/23 00:06:41;;;;;;;;;4.75;2.75;;;;;15.22;60.87;100437.03;4960068;28;45511;-60
2023/04/23 00:09:08;;;;;;;;;2.00;2.00;;;;;15.24;60.74;100434.25;4968113;28;45310;-60
2023/04/23 00:11:34;;;;;;;;;1.75;1.75;;;;;15.17;60.88;100429.22;4968843;28;45315;-60
2023/04/23 00:13:59;;;;;;;;;2.00;2.00;;;;;15.17;60.71;100436.41;4967898;28;45367;-60
2023/04/23 00:16:25;;;;;;;;;2.00;2.00;;;;;15.21;61.03;100440.66;4977054;28;45408;-60
2023/04/23 00:18:50;;;;;;;;;3.25;3.00;;;;;15.21;60.60;100451.41;4967648;28;45438;-60
2023/04/23 00:21:16;;;;;;;;;2.50;1.75;;;;;15.12;60.70;100435.81;4961631;28;46108;-59
2023/04/23 00:23:41;;;;;;;;;3.25;2.00;;;;;15.12;60.81;100447.41;4973929;28;45523;-59
2023/04/23 00:26:07;;;;;;;;;3.25;2.00;;;;;15.12;60.71;100449.25;4973088;28;45441;-60
2023/04/23 00:28:32;;;;;;;;;2.25;2.25;;;;;15.00;61.10;100431.97;4967133;28;45568;-60
2023/04/23 00:30:57;;;;;;;;;4.00;2.00;;;;;15.04;61.06;100441.59;4944189;28;46174;-60
2023/04/23 00:33:23;;;;;;;;;4.00;2.00;;;;;14.87;61.19;100420.16;4965718;28;45386;-60
2023/04/23 00:35:48;;;;;;;;;7.25;3.25;;;;;14.90;61.00;100428.06;4952774;28;45432;-60
2023/04/23 00:38:13;;;;;;;;;2.50;1.75;;;;;14.72;61.13;100395.88;4967153;28;45536;-60
2023/04/23 00:40:39;;;;;;;;;2.75;2.00;;;;;14.96;61.37;100444.69;4960058;28;47054;-60
2023/04/23 00:43:05;;;;;;;;;4.00;3.00;;;;;14.88;61.21;100428.13;4960014;28;45478;-60
2023/04/23 00:45:31;;;;;;;;;3.00;2.75;;;;;14.80;61.09;100419.63;4950393;28;45492;-60
2023/04/23 00:47:57;;;;;;;;;2.00;2.00;;;;;14.80;61.36;100423.19;4960725;28;45546;-60
2023/04/23 00:50:22;;;;;;;;;3.00;3.00;;;;;14.82;61.50;100425.81;4973132;28;45247;-59
2023/04/23 00:52:47;;;;;;;;;4.00;1.50;;;;;14.76;61.47;100424.31;4962373;28;45282;-59
2023/04/23 00:55:13;;;;;;;;;0.00;0.00;;;;;14.77;61.59;100427.88;4961815;28;45524;-60
2023/04/23 00:57:38;;;;;;;;;2.25;1.75;;;;;14.79;61.76;100429.50;4961129;28;45239;-60
2023/04/23 01:00:06;;;;;;;;;2.00;2.00;;;;;14.65;61.97;100405.25;4957768;28;48111;-60
2023/04/23 01:02:33;;;;;;;;;0.00;0.00;;;;;14.67;62.21;100415.88;4972861;28;45482;-60
2023/04/23 01:05:00;;;;;;;;;2.00;2.00;;;;;14.70;61.90;100424.66;4962851;28;45428;-60
2023/04/23 01:07:26;;;;;;;;;3.00;2.00;;;;;14.64;61.93;100411.56;4980340;28;45517;-59
2023/04/23 01:09:52;;;;;;;;;2.00;2.00;;;;;14.67;62.07;100414.09;4980163;28;45679;-60
2023/04/23 01:12:18;;;;;;;;;1.25;1.25;;;;;14.58;62.36;100403.78;4959691;28;45350;-59
2023/04/23 01:14:44;;;;;;;;;2.00;2.00;;;;;14.62;62.40;100410.78;4975943;28;45523;-60
2023/04/23 01:17:11;;;;;;;;;3.50;3.00;;;;;14.59;62.43;100402.88;4975581;28;46028;-60
2023/04/23 01:19:37;;;;;;;;;1.75;1.75;;;;;14.61;62.39;100406.34;4972358;28;46179;-59
2023/04/23 01:22:07;;;;;;;;;1.25;1.25;;;;;14.55;62.29;100403.94;4962831;28;45436;-59
2023/04/23 01:24:32;;;;;;;;;1.75;1.75;;;;;14.55;62.77;100395.91;4979565;28;45544;-60
2023/04/23 01:26:58;;;;;;;;;6.75;6.75;;;;;14.54;62.70;100395.03;4974940;28;45338;-59
2023/04/23 01:29:24;;;;;;;;;11.00;11.00;;;;;14.42;62.91;100380.47;4971105;28;45702;-59
2023/04/23 01:31:50;;;;;;;;;19.75;17.75;;;;;14.44;62.99;100378.56;4966830;28;45504;-60
2023/04/23 01:34:16;;;;;;;;;15.75;14.50;;;;;14.37;62.79;100370.94;4972537;28;45639;-60
2023/04/23 01:36:42;;;;;;;;;12.25;10.50;;;;;14.43;63.10;100390.25;4973814;28;45538;-60
2023/04/23 01:39:08;;;;;;;;;13.50;11.75;;;;;14.43;62.93;100386.69;4960514;28;46350;-60
2023/04/23 01:41:34;;;;;;;;;13.25;11.75;;;;;14.42;63.63;100391.19;4974886;28;45390;-59
2023/04/23 01:44:00;;;;;;;;;10.75;10.50;;;;;14.46;63.17;100391.91;4954809;28;45417;-59
2023/04/23 01:46:26;;;;;;;;;10.25;8.75;;;;;14.44;63.21;100377.69;4955246;28;45460;-60
2023/04/23 01:48:52;;;;;;;;;8.50;6.00;;;;;14.40;63.17;100373.41;4971592;28;46381;-59
2023/04/23 01:51:17;;;;;;;;;3.75;3.25;;;;;14.35;63.37;100372.81;4960247;28;45465;-59
2023/04/23 01:53:43;;;;;;;;;3.00;3.00;;;;;14.37;63.35;100379.00;4942504;28;45469;-60
2023/04/23 01:56:09;;;;;;;;;3.25;3.00;;;;;14.40;63.44;100379.69;4947105;28;45655;-60
2023/04/23 01:58:35;;;;;;;;;3.00;2.00;;;;;14.40;63.75;100368.06;4960272;28;45647;-60
2023/04/23 02:01:00;;;;;;;;;1.00;1.00;;;;;14.32;63.57;100359.56;4960413;28;45354;-60
2023/04/23 02:03:28;;;;;;;;;2.75;2.75;;;;;14.32;63.72;100360.44;4973522;28;45632;-59
2023/04/23 02:05:54;;;;;;;;;3.50;2.50;;;;;14.21;63.76;100346.72;4950374;28;45501;-60
2023/04/23 02:08:19;;;;;;;;;4.00;1.25;;;;;14.27;63.89;100368.72;4972297;28;45455;-59
2023/04/23 02:10:45;;;;;;;;;4.25;2.00;;;;;14.17;64.07;100350.53;4973461;28;45361;-59
2023/04/23 02:13:10;;;;;;;;;1.75;1.75;;;;;14.15;63.91;100369.41;4960329;28;45323;-59
2023/04/23 02:15:37;;;;;;;;;4.50;2.00;;;;;14.20;63.84;100375.38;4967782;28;45346;-60
2023/04/23 02:18:02;;;;;;;;;3.00;2.75;;;;;14.20;64.07;100366.44;4958312;28;47032;-60
2023/04/23 02:20:28;;;;;;;;;3.50;3.50;;;;;14.17;64.22;100369.31;4960315;28;45299;-59
2023/04/23 02:22:53;;;;;;;;;3.75;2.00;;;;;14.10;64.28;100358.03;4953687;28;45670;-59
2023/04/23 02:25:20;;;;;;;;;4.50;3.50;;;;;14.20;64.04;100374.50;4962452;28;45514;-59
2023/04/23 02:27:46;;;;;;;;;2.25;2.25;;;;;14.10;64.36;100352.66;4970411;28;46997;-59
2023/04/23 02:30:12;;;;;;;;;2.25;2.00;;;;;14.04;64.17;100340.44;4959806;28;45633;-59
2023/04/23 02:32:38;;;;;;;;;4.00;3.00;;;;;14.09;64.28;100357.16;4964410;28;45406;-60
2023/04/23 02:35:08;;;;;;;;;5.25;3.50;;;;;14.06;63.95;100360.00;4959820;28;45350;-60
2023/04/23 02:37:34;;;;;;;;;3.00;3.00;;;;;14.06;64.25;100357.31;4967708;28;45521;-59
2023/04/23 02:40:00;;;;;;;;;3.00;3.00;;;;;14.04;64.45;100361.91;4963850;28;45627;-59
2023/04/23 02:42:25;;;;;;;;;6.75;3.75;;;;;13.95;64.55;100342.72;4942145;28;45436;-59
2023/04/23 02:44:51;;;;;;;;;4.00;3.00;;;;;13.94;64.83;100354.44;4958351;28;45373;-60
2023/04/23 02:47:16;;;;;;;;;4.75;3.50;;;;;13.96;64.83;100358.75;4977356;28;46142;-60
2023/04/23 02:49:41;;;;;;;;;6.00;4.00;;;;;13.83;64.78;100346.91;4964289;28;45574;-59
2023/04/23 02:52:07;;;;;;;;;1.00;1.00;;;;;13.83;65.09;100338.88;4959492;28;45338;-59
2023/04/23 02:54:32;;;;;;;;;1.50;1.25;;;;;13.83;65.30;100347.81;4972442;28;45369;-60
2023/04/23 02:56:57;;;;;;;;;4.00;3.00;;;;;13.83;65.54;100349.59;4974206;28;45365;-59
2023/04/23 02:59:23;;;;;;;;;5.00;5.00;;;;;13.69;65.52;100345.81;4959400;28;45340;-60
2023/04/23 03:01:49;;;;;;;;;3.00;3.00;;;;;13.73;65.41;100359.94;4966001;28;45436;-59
2023/04/23 03:04:14;;;;;;;;;2.50;2.50;;;;;13.68;65.40;100353.94;4966050;28;45383;-59
2023/04/23 03:06:40;;;;;;;;;4.50;3.00;;;;;13.58;65.61;100334.81;4971380;28;46131;-59
2023/04/23 03:09:06;;;;;;;;;3.00;3.00;;;;;13.65;65.50;100338.03;4957498;28;45576;-59
2023/04/23 03:11:31;;;;;;;;;5.00;3.00;;;;;13.69;65.73;100342.28;4972649;28;45419;-59
2023/04/23 03:13:57;;;;;;;;;3.50;3.25;;;;;13.65;65.86;100341.59;4959454;28;45591;-59
2023/04/23 03:16:22;;;;;;;;;6.50;3.00;;;;;13.60;65.83;100329.34;4974191;28;45406;-60
2023/04/23 03:18:47;;;;;;;;;5.00;4.00;;;;;13.67;65.66;100339.69;4957800;28;45356;-60
2023/04/23 03:21:13;;;;;;;;;5.00;3.00;;;;;13.52;65.65;100317.19;4959228;28;45279;-59
2023/04/23 03:23:38;;;;;;;;;2.00;2.00;;;;;13.52;65.75;100316.34;4958516;28;45402;-60
2023/04/23 03:26:03;;;;;;;;;4.00;4.00;;;;;13.57;66.01;100324.16;4966118;28;45331;-59
2023/04/23 03:28:30;;;;;;;;;3.50;3.00;;;;;13.57;66.03;100329.53;4968224;28;45378;-59
2023/04/23 03:30:55;;;;;;;;;3.25;2.50;;;;;13.52;65.83;100325.25;4969360;28;45499;-60
2023/04/23 03:33:20;;;;;;;;;4.75;2.75;;;;;13.47;65.98;100321.06;4976957;28;45252;-59
2023/04/23 03:35:46;;;;;;;;;3.00;2.00;;;;;13.43;66.02;100323.06;4977200;28;45306;-59
2023/04/23 03:38:11;;;;;;;;;4.25;3.00;;;;;13.44;66.13;100335.50;4962218;28;45401;-60
2023/04/23 03:40:36;;;;;;;;;4.00;3.00;;;;;13.37;66.13;100322.50;4962561;28;45439;-59
2023/04/23 03:43:02;;;;;;;;;2.75;2.75;;;;;13.30;65.90;100317.41;4962494;28;45290;-59
2023/04/23 03:45:29;;;;;;;;;3.50;3.00;;;;;13.35;66.38;100330.59;4963646;28;45406;-60
2023/04/23 03:47:55;;;;;;;;;3.25;3.25;;;;;13.20;66.45;100324.16;4963811;28;45401;-59
2023/04/23 03:50:20;;;;;;;;;6.25;3.00;;;;;13.25;66.60;100337.34;4962167;28;45885;-59
2023/04/23 03:52:45;;;;;;;;;4.00;3.25;;;;;13.19;66.55;100321.56;4971470;28;45495;-59
2023/04/23 03:55:11;;;;;;;;;6.00;3.00;;;;;13.15;66.40;100312.81;4962229;28;45696;-59
2023/04/23 03:57:36;;;;;;;;;2.25;2.25;;;;;13.18;66.47;100315.34;4979898;28;45499;-59
2023/04/23 04:00:03;;;;;;;;;3.00;3.00;;;;;13.20;66.36;100304.53;4944702;28;45360;-59
2023/04/23 04:02:29;;;;;;;;;1.75;1.00;;;;;13.22;66.46;100311.56;4956171;28;45517;-59
2023/04/23 04:04:55;;;;;;;;;3.00;3.00;;;;;13.16;66.61;100309.16;4962924;28;46558;-59
2023/04/23 04:07:20;;;;;;;;;3.50;2.75;;;;;13.20;66.55;100320.59;4960306;28;45676;-59
2023/04/23 04:09:48;;;;;;;;;4.75;4.75;;;;;13.20;66.48;100336.69;4945497;28;45514;-59
2023/04/23 04:12:13;;;;;;;;;4.50;3.00;;;;;13.21;66.65;100311.63;4960586;28;45528;-59
2023/04/23 04:14:39;;;;;;;;;5.00;3.00;;;;;13.12;66.42;100300.41;4965450;28;45559;-59
2023/04/23 04:17:04;;;;;;;;;4.50;2.00;;;;;13.12;66.51;100299.56;4980301;28;45564;-59
2023/04/23 04:19:29;;;;;;;;;4.50;3.25;;;;;13.07;66.46;100291.75;4962319;28;45430;-59
2023/04/23 04:21:55;;;;;;;;;2.00;2.00;;;;;13.09;66.50;100305.94;4961006;28;45455;-59
2023/04/23 04:24:20;;;;;;;;;3.00;2.00;;;;;12.98;66.29;100282.38;4953055;28;47411;-60
2023/04/23 04:26:46;;;;;;;;;4.50;4.50;;;;;12.97;66.73;100291.34;4979781;28;45322;-59
2023/04/23 04:29:11;;;;;;;;;4.50;3.50;;;;;12.96;66.85;100286.94;4976659;28;45482;-59
2023/04/23 04:31:37;;;;;;;;;3.75;3.00;;;;;12.97;66.79;100296.69;4964159;28;45580;-59
2023/04/23 04:34:03;;;;;;;;;2.25;2.25;;;;;12.94;66.50;100288.81;4976570;28;45612;-59
2023/04/23 04:36:28;;;;;;;;;3.25;3.25;;;;;12.96;66.81;100286.06;4978631;28;45508;-59
2023/04/23 04:38:57;;;;;;;;;4.00;2.00;;;;;13.03;66.90;100297.34;4979684;28;45295;-59
2023/04/23 04:41:24;;;;;;;;;3.00;3.00;;;;;13.03;66.89;100305.38;4967658;28;45619;-60
2023/04/23 04:43:50;;;;;;;;;5.00;4.00;;;;;12.90;66.82;100283.69;4968078;28;45419;-59
2023/04/23 04:46:18;;;;;;;;;7.00;7.00;;;;;12.90;66.87;100281.03;4976933;28;45596;-59
2023/04/23 04:48:44;;;;;;;;;6.25;5.50;;;;;12.89;66.91;100284.63;4973007;28;46769;-59
2023/04/23 04:51:09;;;;;;;;;7.75;6.50;;;;;12.95;67.13;100281.66;4973279;28;45468;-59
2023/04/23 04:53:35;;;;;;;;;10.75;7.75;;;;;12.95;66.98;100279.84;4943577;28;47148;-59
2023/04/23 04:56:01;;;;;;;;;6.25;5.50;;;;;12.97;67.09;100272.59;4970590;28;45553;-59
2023/04/23 04:58:26;;;;;;;;;8.75;7.00;;;;;12.86;66.95;100256.16;4973618;28;45532;-59
2023/04/23 05:00:51;;;;;;;;;7.00;5.50;;;;;12.96;67.11;100268.19;4961105;28;45613;-60
2023/04/23 05:03:18;;;;;;;;;5.00;5.00;;;;;12.90;66.77;100257.78;4974052;28;45497;-59
2023/04/23 05:05:44;;;;;;;;;5.25;5.25;;;;;12.93;67.03;100265.66;4962046;28;45868;-59
2023/04/23 05:08:10;;;;;;;;;6.00;4.25;;;;;12.92;66.68;100265.72;4974876;28;45489;-59
2023/04/23 05:10:35;;;;;;;;;2.25;2.25;;;;;12.88;66.85;100267.69;4961164;28;45350;-59
2023/04/23 05:13:01;;;;;;;;;3.25;2.25;;;;;12.78;66.97;100256.56;4960825;28;45390;-59
2023/04/23 05:15:26;;;;;;;;;2.00;2.00;;;;;12.87;66.86;100268.63;4969179;28;45517;-60
2023/04/23 05:17:52;;;;;;;;;3.25;3.00;;;;;12.69;67.00;100242.75;4961423;28;45439;-59
2023/04/23 05:20:19;;;;;;;;;3.25;2.00;;;;;12.78;67.17;100258.38;4954120;28;45671;-59
2023/04/23 05:22:45;;;;;;;;;4.00;4.00;;;;;12.65;67.35;100239.38;4973393;28;47060;-59
2023/04/23 05:25:12;;;;;;;;;3.00;2.75;;;;;12.79;67.38;100273.50;4962039;28;45642;-59
2023/04/23 05:27:38;;;;;;;;;5.25;3.00;;;;;12.55;67.40;100230.06;4974145;28;45365;-59
2023/04/23 05:30:07;;;;;;;;;2.50;2.00;;;;;12.72;67.57;100266.72;4960390;28;45446;-59
2023/04/23 05:32:32;;;;;;;;;2.25;2.25;;;;;12.62;67.71;100246.69;4974958;28;45350;-59
2023/04/23 05:35:01;;;;;;;;;4.25;3.00;;;;;12.70;67.46;100250.72;4967118;28;45319;-59
2023/04/23 05:37:27;;;;;;;;;2.00;2.00;;;;;12.76;67.74;100260.25;4972662;28;45376;-59
2023/04/23 05:39:53;;;;;;;;;3.00;3.00;;;;;12.75;68.00;100251.34;4959469;28;45602;-60
2023/04/23 05:42:18;;;;;;;;;2.00;1.75;;;;;12.47;67.66;100211.69;4960527;28;45353;-59
2023/04/23 05:44:44;;;;;;;;;3.00;3.00;;;;;12.78;67.57;100255.72;4960443;28;45381;-59
2023/04/23 05:47:10;;;;;;;;;2.00;2.00;;;;;12.68;67.64;100228.50;4977355;28;45449;-59
2023/04/23 05:49:35;;;;;;;;;5.00;3.00;;;;;12.73;67.55;100236.28;4971209;28;45414;-59
2023/04/23 05:52:02;;;;;;;;;3.00;3.00;;;;;12.82;67.88;100248.38;4958276;28;45963;-59
2023/04/23 05:54:27;;;;;;;;;2.75;2.75;;;;;12.63;67.95;100225.19;4958934;28;45278;-60
2023/04/23 05:56:53;;;;;;;;;5.75;2.25;;;;;12.72;67.73;100242.59;4957515;28;45502;-59
2023/04/23 05:59:18;;;;;;;;;2.00;2.00;;;;;12.71;68.16;100243.53;4965746;28;45564;-59
2023/04/23 06:01:44;;;;;;;;;4.25;3.00;;;;;12.75;68.10;100242.47;4965684;28;45652;-59
2023/04/23 06:04:09;;;;;;;;;4.75;3.00;;;;;12.65;67.88;100236.69;4967332;28;45417;-60
2023/04/23 06:06:34;;;;;;;;;2.25;2.00;;;;;12.71;68.08;100238.19;4971996;28;45309;-59
2023/04/23 06:09:00;;;;;;;;;4.00;3.00;;;;;12.67;68.03;100236.63;4962666;28;45308;-60
2023/04/23 06:11:26;;;;;;;;;2.25;2.00;;;;;12.74;68.33;100248.75;4959978;28;45344;-59
2023/04/23 06:13:51;;;;;;;;;2.00;2.00;;;;;12.70;68.05;100240.00;4960140;28;45323;-59
2023/04/23 06:16:16;;;;;;;;;2.00;2.00;;;;;12.74;67.97;100244.25;4955312;28;45520;-59
2023/04/23 06:18:42;;;;;;;;;4.75;3.75;;;;;12.74;68.29;100252.28;4967139;28;45402;-59
2023/04/23 06:21:08;;;;;;;;;5.50;3.00;;;;;12.56;68.36;100221.94;4959612;28;47483;-59
2023/04/23 06:23:34;;;;;;;;;5.75;4.00;;;;;12.58;68.43;100238.81;4959937;28;45507;-59
2023/04/23 07:18:22;;;;;;;;;5.75;5.50;;;;;12.72;72.01;100186.38;5181492;23;45403;-59
2023/04/23 07:20:48;;;;;;;;;5.00;5.00;;;;;12.78;72.46;100192.28;4989989;28;46330;-59
2023/04/23 07:23:13;;;;;;;;;6.25;5.00;;;;;12.63;72.50;100157.38;4980906;28;45352;-59
2023/04/23 07:25:38;;;;;;;;;5.75;5.75;;;;;12.77;72.36;100190.53;4998354;28;48530;-59
2023/04/23 07:28:04;;;;;;;;;6.50;5.75;;;;;12.82;72.64;100187.63;4980871;28;45423;-59
2023/04/23 07:30:29;;;;;;;;;7.00;5.00;;;;;12.78;72.95;100173.53;4968174;28;46993;-59
2023/04/23 07:32:55;;;;;;;;;6.00;6.00;;;;;12.89;73.01;100191.72;4978416;28;45436;-59
2023/04/23 07:35:21;;;;;;;;;7.00;6.00;;;;;12.76;73.16;100171.88;4975851;28;45409;-59
2023/04/23 07:37:46;;;;;;;;;6.00;5.25;;;;;12.75;73.09;100162.13;4973335;28;45451;-59
2023/04/23 07:40:12;;;;;;;;;6.50;5.25;;;;;12.88;73.51;100167.69;4978301;28;45433;-59
2023/04/23 07:42:38;;;;;;;;;6.00;6.00;;;;;12.76;73.31;100150.44;4966048;28;45408;-59
2023/04/23 07:45:04;;;;;;;;;8.00;8.00;;;;;12.89;73.51;100177.47;4970079;28;45572;-60
2023/04/23 07:47:30;;;;;;;;;6.25;6.25;;;;;12.74;73.36;100157.69;4974590;28;45495;-60
2023/04/23 07:49:55;;;;;;;;;7.75;6.75;;;;;12.96;73.55;100177.09;4963474;28;47259;-60
2023/04/23 07:52:20;;;;;;;;;7.25;7.00;;;;;12.98;73.85;100187.75;4962586;28;45517;-60
2023/04/23 07:54:46;;;;;;;;;6.50;6.50;;;;;12.96;74.03;100184.25;4994578;28;45348;-59
2023/04/23 07:57:11;;;;;;;;;11.75;9.50;;;;;12.88;74.07;100165.91;4976757;28;45614;-59
2023/04/23 07:59:39;;;;;;;;;8.50;8.50;;;;;12.83;74.08;100153.69;4979031;28;46135;-59
2023/04/23 08:02:05;;;;;;;;;9.00;7.00;;;;;12.89;74.32;100143.50;4962189;28;45634;-59
2023/04/23 08:04:30;;;;;;;;;8.25;8.00;;;;;12.79;74.25;100126.19;4967056;28;45333;-59
2023/04/23 08:06:55;;;;;;;;;9.00;6.75;;;;;12.96;74.50;100128.00;4971762;28;45607;-59
2023/04/23 08:09:21;;;;;;;;;7.75;7.75;;;;;12.99;74.50;100117.13;4961683;28;48023;-59
2023/04/23 08:11:47;;;;;;;;;4.00;3.00;;;;;13.06;75.13;100123.88;4976530;28;53166;-60
2023/04/23 08:14:12;;;;;;;;;12.75;9.75;;;;;12.91;74.70;100105.94;4961288;28;45424;-59
2023/04/23 08:16:38;;;;;;;;;8.25;8.25;;;;;12.98;74.68;100108.22;4960112;28;45513;-60
2023/04/23 08:19:04;;;;;;;;;8.25;8.00;;;;;12.96;75.27;100094.06;4987953;28;45481;-60
2023/04/23 08:21:31;;;;;;;;;12.00;11.25;;;;;13.03;75.54;100091.03;4987329;28;45332;-60
2023/04/23 08:23:56;;;;;;;;;12.25;8.75;;;;;13.00;75.28;100080.47;4972735;28;45330;-59
2023/04/23 08:26:22;;;;;;;;;8.50;8.50;;;;;12.95;75.57;100073.56;4958609;28;45742;-59
2023/04/23 08:28:48;;;;;;;;;9.50;8.75;;;;;13.03;75.55;100066.91;4993209;28;45427;-59
2023/04/23 08:31:13;;;;;;;;;7.75;7.75;;;;;13.02;75.71;100036.59;4980841;28;45384;-60
2023/04/23 08:33:39;;;;;;;;;9.50;8.00;;;;;13.11;75.78;100053.97;4988614;28;45320;-59
2023/04/23 08:36:05;;;;;;;;;8.50;7.25;;;;;13.13;75.75;100052.06;4987255;28;45337;-59
2023/04/23 08:38:30;;;;;;;;;7.50;7.00;;;;;13.05;75.81;100041.78;4985337;28;45333;-59
2023/04/23 08:40:57;;;;;;;;;8.00;8.00;;;;;13.10;75.91;100049.59;4956065;28;45367;-60
2023/04/23 08:43:31;;;;;;;;;8.75;8.25;;;;;13.13;76.14;100028.84;4987177;28;45623;-59
2023/04/23 08:46:03;;;;;;;;;12.50;8.75;;;;;13.11;76.52;100028.06;4987053;28;45263;-59
2023/04/23 08:48:29;;;;;;;;;10.25;10.25;;;;;13.06;76.32;100011.34;4990668;28;45477;-59
2023/04/23 08:50:56;;;;;;;;;10.25;9.75;;;;;13.14;76.49;100024.34;4977054;28;45706;-59
2023/04/23 08:53:26;;;;;;;;;14.00;10.25;;;;;13.08;76.71;99998.75;4963085;28;45345;-60
2023/04/23 08:55:54;;;;;;;;;9.00;9.00;;;;;13.12;76.99;100012.84;4964494;28;45354;-60
2023/04/23 08:58:20;;;;;;;;;7.00;6.00;;;;;13.03;76.91;99987.44;4988113;28;47171;-60
2023/04/23 09:00:47;;;;;;;;;7.00;7.00;;;;;13.03;77.11;99982.06;4990937;28;45661;-59
2023/04/23 09:03:15;;;;;;;;;9.00;9.00;;;;;13.04;77.62;99991.81;4999194;28;45346;-59
2023/04/23 09:05:41;;;;;;;;;8.00;8.00;;;;;13.03;77.58;99982.06;4989552;28;45468;-59
2023/04/23 09:08:07;;;;;;;;;7.00;7.00;;;;;13.03;77.37;99978.50;4994164;28;46153;-59
2023/04/23 09:10:36;;;;;;;;;8.00;8.00;;;;;13.13;77.97;99980.63;5005058;28;45483;-59
2023/04/23 09:13:02;;;;;;;;;8.50;8.50;;;;;13.09;77.64;99965.63;4995471;28;45434;-60
2023/04/23 09:15:27;;;;;;;;;10.75;8.00;;;;;13.16;77.56;99963.47;4977548;28;45539;-61
2023/04/23 09:17:52;;;;;;;;;9.00;8.25;;;;;13.18;77.79;99953.56;4975286;28;49311;-60
2023/04/23 09:20:17;;;;;;;;;10.25;10.25;;;;;13.21;77.92;99952.50;4987782;28;45345;-60
2023/04/23 09:22:48;;;;;;;;;8.00;8.00;;;;;13.12;78.48;99935.13;5001902;28;45469;-59
2023/04/23 09:25:18;;;;;;;;;11.25;9.25;;;;;13.20;78.38;99924.84;4986227;28;45430;-59
2023/04/23 09:27:44;;;;;;;;;9.50;9.50;;;;;13.25;78.34;99911.22;4993540;28;46284;-59
2023/04/23 09:30:10;;;;;;;;;9.00;8.75;;;;;13.34;78.12;99916.91;5004898;28;45483;-59
2023/04/23 09:32:38;;;;;;;;;10.25;9.50;;;;;13.33;77.77;99914.31;4970410;28;45489;-59
2023/04/23 09:35:05;;;;;;;;;9.00;6.50;;;;;13.38;77.78;99909.59;5010747;28;45506;-59
2023/04/23 09:37:31;;;;;;;;;9.50;9.00;;;;;13.39;77.64;99905.94;4999541;28;45491;-60
2023/04/23 09:40:07;;;;;;;;;4.75;4.50;;;;;13.32;77.47;99886.66;5010579;28;45921;-59
2023/04/23 09:42:33;;;;;;;;;9.75;9.25;;;;;13.40;77.62;99901.44;5001213;28;45384;-59
2023/04/23 09:45:16;;;;;;;;;6.50;6.50;;;;;13.45;77.49;99894.00;5009058;28;45610;-59
2023/04/23 09:47:55;;;;;;;;;7.00;7.00;;;;;13.46;77.19;99880.50;5003615;28;45624;-59
2023/04/23 09:50:38;;;;;;;;;9.50;8.75;;;;;13.49;77.53;99892.88;5000046;28;45963;-59
2023/04/23 09:53:04;;;;;;;;;7.75;7.50;;;;;13.51;77.79;99889.16;4998744;28;45625;-60
2023/04/23 09:55:39;;;;;;;;;8.25;7.25;;;;;13.42;77.33;99878.97;5011580;28;45510;-59
2023/04/23 09:58:13;;;;;;;;;8.25;7.75;;;;;13.56;77.48;99883.50;4998431;28;45423;-59
2023/04/23 10:00:40;;;;;;;;;9.00;9.00;;;;;13.48;77.52;99867.88;4997513;28;45512;-59
2023/04/23 10:03:08;;;;;;;;;8.25;8.25;;;;;13.52;77.17;99857.84;4984690;28;45418;-59
2023/04/23 10:05:40;;;;;;;;;7.00;7.00;;;;;13.50;77.52;99849.88;5015688;28;45411;-59
2023/04/23 10:08:05;;;;;;;;;8.75;8.75;;;;;13.48;76.68;99840.19;5002501;28;46021;-59
2023/04/23 10:10:33;;;;;;;;;11.75;9.50;;;;;13.56;76.58;99845.13;4997991;28;45582;-60
2023/04/23 10:12:59;;;;;;;;;9.00;7.50;;;;;13.59;76.53;99842.25;4986202;28;45313;-60
2023/04/23 10:15:26;;;;;;;;;6.75;6.75;;;;;13.67;76.20;99846.19;5000948;28;45618;-61
2023/04/23 10:17:52;;;;;;;;;7.25;7.25;;;;;13.71;76.35;99849.56;4988450;28;45503;-60
2023/04/23 10:20:20;;;;;;;;;6.25;6.25;;;;;13.68;76.00;99837.22;4990415;28;45659;-61
2023/04/23 10:22:46;;;;;;;;;6.75;6.75;;;;;13.63;76.06;99830.38;4981659;28;45485;-61
2023/04/23 10:25:12;;;;;;;;;5.25;5.00;;;;;13.71;75.73;99820.94;4999105;28;45361;-61
2023/04/23 10:27:42;;;;;;;;;8.00;6.50;;;;;13.61;75.37;99800.13;5011911;28;45980;-60
2023/04/23 10:30:10;;;;;;;;;6.00;6.00;;;;;13.84;75.37;99814.81;4989064;28;45478;-61
2023/04/23 10:32:37;;;;;;;;;7.50;6.50;;;;;13.76;75.43;99809.06;4981071;28;45657;-62
2023/04/23 10:35:03;;;;;;;;;8.00;7.00;;;;;13.83;75.45;99813.09;4995882;28;45937;-61
2023/04/23 10:37:29;;;;;;;;;5.75;5.75;;;;;13.84;75.67;99810.31;4994254;28;45728;-61
2023/04/23 10:39:57;;;;;;;;;5.25;5.25;;;;;13.87;75.24;99812.81;5001123;28;45489;-61
2023/04/23 10:42:22;;;;;;;;;7.00;5.75;;;;;13.85;74.99;99806.69;5001552;28;45766;-61
2023/04/23 10:44:48;;;;;;;;;6.00;6.00;;;;;13.76;74.67;99779.56;4994241;28;45590;-61
2023/04/23 10:47:15;;;;;;;;;8.00;7.00;;;;;13.87;74.69;99786.00;4997962;28;46511;-60
2023/04/23 10:49:42;;;;;;;;;4.00;3.75;;;;;13.79;75.11;99763.28;4996667;28;46211;-61
2023/04/23 10:52:15;;;;;;;;;5.25;5.25;;;;;13.95;74.32;99769.44;4981120;28;45597;-61
2023/04/23 10:54:48;;;;;;;;;6.50;5.00;;;;;13.97;74.33;99780.94;4988204;28;45781;-60
2023/04/23 10:57:13;;;;;;;;;5.50;5.00;;;;;13.92;73.77;99758.88;4988001;28;47283;-61
2023/04/23 10:59:50;;;;;;;;;8.00;6.00;;;;;13.99;74.23;99756.69;4999979;28;45645;-60
2023/04/23 11:02:16;;;;;;;;;4.00;3.00;;;;;13.88;73.92;99722.47;4991906;28;45765;-61
2023/04/23 11:04:47;;;;;;;;;5.75;5.75;;;;;14.01;73.73;99734.16;4980305;28;45598;-61
2023/04/23 11:07:13;;;;;;;;;5.00;5.00;;;;;14.07;73.70;99736.47;4998155;28;45730;-61
2023/04/23 11:09:43;;;;;;;;;4.00;4.00;;;;;14.08;73.28;99723.88;4996505;28;45555;-61
2023/04/23 11:12:25;;;;;;;;;5.00;4.50;;;;;14.06;73.19;99715.94;4996731;28;45526;-60
2023/04/23 11:14:53;;;;;;;;;4.00;3.00;;;;;14.01;73.24;99691.22;4991238;28;45654;-61
2023/04/23 11:17:46;;;;;;;;;3.50;3.00;;;;;14.12;73.07;99703.97;4973383;28;48412;-60
2023/04/23 11:20:17;;;;;;;;;4.50;3.00;;;;;14.13;72.92;99704.81;4968020;28;45566;-61
2023/04/23 11:22:46;;;;;;;;;3.00;3.00;;;;;14.08;72.66;99687.22;4990387;28;45692;-61
2023/04/23 11:25:18;;;;;;;;;2.25;2.25;;;;;14.13;72.86;99684.19;4977762;28;45720;-61
2023/04/23 11:27:45;;;;;;;;;6.00;4.50;;;;;14.15;73.12;99684.09;4977441;28;47085;-61
2023/04/23 11:30:14;;;;;;;;;3.25;3.25;;;;;14.14;72.96;99674.34;4984987;28;45740;-61
2023/04/23 11:32:44;;;;;;;;;3.00;3.00;;;;;14.08;72.93;99667.53;4975800;28;45557;-62
2023/04/23 11:35:12;;;;;;;;;4.75;3.25;;;;;14.15;72.88;99665.31;4966337;28;45758;-61
2023/04/23 11:37:39;;;;;;;;;4.00;4.00;;;;;14.18;72.71;99676.75;4964953;28;45754;-61
2023/04/23 11:40:10;;;;;;;;;3.75;3.25;;;;;14.18;72.90;99654.41;4972813;28;45365;-61
2023/04/23 11:42:48;;;;;;;;;4.75;4.75;;;;;14.08;73.42;99638.03;4974685;28;45581;-62
2023/04/23 11:45:27;;;;;;;;;3.00;3.00;;;;;14.15;74.11;99650.09;4982162;28;45742;-60
2023/04/23 11:47:55;;;;;;;;;5.00;5.00;;;;;14.11;74.47;99653.06;4984371;28;47223;-60
2023/04/23 11:50:35;;;;;;;;;5.50;5.00;;;;;14.07;74.84;99634.47;4978909;28;45535;-60
2023/04/23 11:53:10;;;;;;;;;4.00;3.75;;;;;14.17;75.16;99663.44;4983054;28;45858;-61
2023/04/23 11:55:36;;;;;;;;;4.00;4.00;;;;;14.11;75.04;99640.50;4980351;28;45931;-60
2023/04/23 11:58:02;;;;;;;;;3.00;3.00;;;;;14.18;74.87;99671.38;4970209;28;46537;-60
2023/04/23 12:00:28;;;;;;;;;2.25;2.00;;;;;14.19;75.09;99691.03;4972483;28;45531;-60
2023/04/23 12:02:58;;;;;;;;;2.00;2.00;;;;;14.12;74.90;99689.69;4978612;28;46182;-60
2023/04/23 12:05:35;;;;;;;;;2.50;2.50;;;;;14.20;75.12;99680.19;4981067;28;45445;-60
2023/04/23 12:08:12;;;;;;;;;2.75;2.75;;;;;14.23;75.92;99688.06;4977227;28;47173;-60
2023/04/23 12:10:52;;;;;;;;;4.00;4.00;;;;;14.19;76.64;99691.88;4973598;28;45767;-60
2023/04/23 12:13:26;;;;;;;;;4.00;2.00;;;;;13.96;76.93;99654.91;4968989;28;45523;-60
2023/04/23 12:15:57;;;;;;;;;1.00;1.00;;;;;14.08;77.07;99687.22;4979670;28;45694;-60
2023/04/23 12:18:27;;;;;;;;;1.00;1.00;;;;;14.19;77.22;99699.06;4973681;28;46903;-60